sensor_id;sensor_type;location;lat;lon;timestamp;P1;durP1;ratioP1;P2;durP2;ratioP2
44664;SDS011;30382;48.802;9.388;2023-06-10T00:01:35;8.50;;;7.73;;
44664;SDS011;30382;48.802;9.388;2023-06-10T00:04:20;8.77;;;7.67;;
44664;SDS011;30382;48.802;9.388;2023-06-10T00:07:04;8.90;;;8.10;;
44664;SDS011;30382;48.802;9.388;2023-06-10T00:09:52;8.40;;;7.60;;
44664;SDS011;30382;48.802;9.388;2023-06-10T00:12:36;7.90;;;7.20;;
44664;SDS011;30382;48.802;9.388;2023-06-10T00:15:22;8.83;;;8.13;;
44664;SDS011;30382;48.802;9.388;2023-06-10T00:18:06;8.60;;;7.90;;
44664;SDS011;30382;48.802;9.388;2023-06-10T00:20:53;8.07;;;7.30;;
44664;SDS011;30382;48.802;9.388;2023-06-10T00:23:39;9.23;;;8.33;;
44664;SDS011;30382;48.802;9.388;2023-06-10T00:26:23;8.23;;;7.53;;
44664;SDS011;30382;48.802;9.388;2023-06-10T00:29:07;8.47;;;7.63;;
44664;SDS011;30382;48.802;9.388;2023-06-10T00:31:55;8.80;;;7.80;;
44664;SDS011;30382;48.802;9.388;2023-06-10T00:34:41;8.40;;;7.70;;
44664;SDS011;30382;48.802;9.388;2023-06-10T00:37:26;9.83;;;8.87;;
44664;SDS011;30382;48.802;9.388;2023-06-10T00:40:10;9.03;;;8.13;;
44664;SDS011;30382;48.802;9.388;2023-06-10T00:42:55;8.20;;;7.50;;
44664;SDS011;30382;48.802;9.388;2023-06-10T00:45:39;9.30;;;8.40;;
44664;SDS011;30382;48.802;9.388;2023-06-10T00:48:23;9.50;;;8.60;;
44664;SDS011;30382;48.802;9.388;2023-06-10T00:51:08;8.20;;;7.60;;
44664;SDS011;30382;48.802;9.388;2023-06-10T00:53:53;9.60;;;8.67;;
44664;SDS011;30382;48.802;9.388;2023-06-10T00:56:37;8.70;;;7.80;;
44664;SDS011;30382;48.802;9.388;2023-06-10T00:59:22;8.30;;;7.20;;
44664;SDS011;30382;48.802;9.388;2023-06-10T01:02:06;8.80;;;8.10;;
44664;SDS011;30382;48.802;9.388;2023-06-10T01:04:51;10.23;;;8.53;;
44664;SDS011;30382;48.802;9.388;2023-06-10T01:10:29;8.10;;;7.40;;
44664;SDS011;30382;48.802;9.388;2023-06-10T01:13:15;7.33;;;6.40;;
44664;SDS011;30382;48.802;9.388;2023-06-10T01:16:00;10.87;;;7.93;;
44664;SDS011;30382;48.802;9.388;2023-06-10T01:18:45;7.43;;;6.73;;
44664;SDS011;30382;48.802;9.388;2023-06-10T01:21:29;8.23;;;7.53;;
44664;SDS011;30382;48.802;9.388;2023-06-10T01:24:15;8.90;;;8.00;;
44664;SDS011;30382;48.802;9.388;2023-06-10T01:27:04;8.63;;;7.83;;
44664;SDS011;30382;48.802;9.388;2023-06-10T01:29:50;8.67;;;7.77;;
44664;SDS011;30382;48.802;9.388;2023-06-10T01:32:40;8.23;;;7.50;;
44664;SDS011;30382;48.802;9.388;2023-06-10T01:35:25;7.90;;;7.30;;
44664;SDS011;30382;48.802;9.388;2023-06-10T01:38:10;8.43;;;7.60;;
44664;SDS011;30382;48.802;9.388;2023-06-10T01:40:55;8.33;;;7.63;;
44664;SDS011;30382;48.802;9.388;2023-06-10T01:43:39;10.90;;;8.33;;
44664;SDS011;30382;48.802;9.388;2023-06-10T01:46:24;8.40;;;7.60;;
44664;SDS011;30382;48.802;9.388;2023-06-10T01:49:09;8.00;;;7.20;;
44664;SDS011;30382;48.802;9.388;2023-06-10T01:51:53;7.40;;;6.70;;
44664;SDS011;30382;48.802;9.388;2023-06-10T01:54:38;7.80;;;7.17;;
44664;SDS011;30382;48.802;9.388;2023-06-10T01:57:23;8.27;;;7.33;;
44664;SDS011;30382;48.802;9.388;2023-06-10T02:00:07;8.70;;;7.80;;
44664;SDS011;30382;48.802;9.388;2023-06-10T02:02:59;8.23;;;7.57;;
44664;SDS011;30382;48.802;9.388;2023-06-10T02:05:43;8.37;;;7.57;;
44664;SDS011;30382;48.802;9.388;2023-06-10T02:08:28;8.10;;;7.40;;
44664;SDS011;30382;48.802;9.388;2023-06-10T02:11:12;7.70;;;7.10;;
44664;SDS011;30382;48.802;9.388;2023-06-10T02:13:56;9.10;;;8.30;;
44664;SDS011;30382;48.802;9.388;2023-06-10T02:16:41;8.50;;;7.80;;
44664;SDS011;30382;48.802;9.388;2023-06-10T02:19:25;8.00;;;7.30;;
44664;SDS011;30382;48.802;9.388;2023-06-10T02:22:11;7.13;;;6.50;;
44664;SDS011;30382;48.802;9.388;2023-06-10T02:24:55;8.80;;;6.70;;
44664;SDS011;30382;48.802;9.388;2023-06-10T02:27:39;6.93;;;6.43;;
44664;SDS011;30382;48.802;9.388;2023-06-10T02:30:24;7.83;;;6.90;;
44664;SDS011;30382;48.802;9.388;2023-06-10T02:33:08;7.60;;;6.90;;
44664;SDS011;30382;48.802;9.388;2023-06-10T02:35:56;7.97;;;7.27;;
44664;SDS011;30382;48.802;9.388;2023-06-10T02:38:42;6.83;;;6.33;;
44664;SDS011;30382;48.802;9.388;2023-06-10T02:41:26;7.43;;;6.83;;
44664;SDS011;30382;48.802;9.388;2023-06-10T02:44:12;9.57;;;7.53;;
44664;SDS011;30382;48.802;9.388;2023-06-10T02:46:57;8.83;;;8.03;;
44664;SDS011;30382;48.802;9.388;2023-06-10T02:49:42;8.60;;;7.80;;
44664;SDS011;30382;48.802;9.388;2023-06-10T02:52:28;8.43;;;7.63;;
44664;SDS011;30382;48.802;9.388;2023-06-10T02:55:13;8.83;;;8.03;;
44664;SDS011;30382;48.802;9.388;2023-06-10T03:00:47;7.37;;;6.73;;
44664;SDS011;30382;48.802;9.388;2023-06-10T03:03:33;7.40;;;6.60;;
44664;SDS011;30382;48.802;9.388;2023-06-10T03:06:24;7.80;;;7.00;;
44664;SDS011;30382;48.802;9.388;2023-06-10T03:09:10;7.40;;;6.70;;
44664;SDS011;30382;48.802;9.388;2023-06-10T03:11:56;7.93;;;7.00;;
44664;SDS011;30382;48.802;9.388;2023-06-10T03:14:41;8.07;;;7.37;;
44664;SDS011;30382;48.802;9.388;2023-06-10T03:17:26;7.97;;;7.27;;
44664;SDS011;30382;48.802;9.388;2023-06-10T03:20:10;8.00;;;7.30;;
44664;SDS011;30382;48.802;9.388;2023-06-10T03:22:57;10.87;;;9.53;;
44664;SDS011;30382;48.802;9.388;2023-06-10T03:25:41;10.90;;;9.80;;
44664;SDS011;30382;48.802;9.388;2023-06-10T03:28:28;11.17;;;10.00;;
44664;SDS011;30382;48.802;9.388;2023-06-10T03:31:12;8.97;;;7.90;;
44664;SDS011;30382;48.802;9.388;2023-06-10T03:33:56;8.80;;;8.00;;
44664;SDS011;30382;48.802;9.388;2023-06-10T03:36:42;8.70;;;7.90;;
44664;SDS011;30382;48.802;9.388;2023-06-10T03:39:28;8.70;;;8.00;;
44664;SDS011;30382;48.802;9.388;2023-06-10T03:42:15;7.97;;;7.27;;
44664;SDS011;30382;48.802;9.388;2023-06-10T03:44:59;13.53;;;8.80;;
44664;SDS011;30382;48.802;9.388;2023-06-10T03:47:46;8.77;;;8.00;;
44664;SDS011;30382;48.802;9.388;2023-06-10T03:50:33;8.43;;;7.73;;
44664;SDS011;30382;48.802;9.388;2023-06-10T03:53:17;8.30;;;7.60;;
44664;SDS011;30382;48.802;9.388;2023-06-10T03:56:03;8.63;;;7.83;;
44664;SDS011;30382;48.802;9.388;2023-06-10T03:58:48;9.77;;;8.87;;
44664;SDS011;30382;48.802;9.388;2023-06-10T04:01:32;7.43;;;6.73;;
44664;SDS011;30382;48.802;9.388;2023-06-10T04:04:18;9.00;;;6.60;;
44664;SDS011;30382;48.802;9.388;2023-06-10T04:07:04;9.27;;;8.47;;
44664;SDS011;30382;48.802;9.388;2023-06-10T04:09:48;8.40;;;7.07;;
44664;SDS011;30382;48.802;9.388;2023-06-10T04:12:33;9.00;;;8.20;;
44664;SDS011;30382;48.802;9.388;2023-06-10T04:15:17;8.50;;;7.70;;
44664;SDS011;30382;48.802;9.388;2023-06-10T04:18:01;8.17;;;7.37;;
44664;SDS011;30382;48.802;9.388;2023-06-10T04:20:46;8.23;;;7.53;;
44664;SDS011;30382;48.802;9.388;2023-06-10T04:23:30;7.60;;;6.80;;
44664;SDS011;30382;48.802;9.388;2023-06-10T04:26:15;7.90;;;7.20;;
44664;SDS011;30382;48.802;9.388;2023-06-10T04:29:00;9.40;;;8.07;;
44664;SDS011;30382;48.802;9.388;2023-06-10T04:31:45;7.73;;;7.03;;
44664;SDS011;30382;48.802;9.388;2023-06-10T04:34:31;7.73;;;7.13;;
44664;SDS011;30382;48.802;9.388;2023-06-10T04:37:15;8.80;;;7.90;;
44664;SDS011;30382;48.802;9.388;2023-06-10T04:39:59;8.47;;;7.77;;
44664;SDS011;30382;48.802;9.388;2023-06-10T04:42:45;9.00;;;8.10;;
44664;SDS011;30382;48.802;9.388;2023-06-10T04:45:30;7.63;;;7.03;;
44664;SDS011;30382;48.802;9.388;2023-06-10T04:48:15;8.60;;;7.80;;
44664;SDS011;30382;48.802;9.388;2023-06-10T04:51:00;8.47;;;7.50;;
44664;SDS011;30382;48.802;9.388;2023-06-10T04:53:44;9.33;;;8.50;;
44664;SDS011;30382;48.802;9.388;2023-06-10T04:56:29;8.40;;;7.60;;
44664;SDS011;30382;48.802;9.388;2023-06-10T04:59:14;8.80;;;8.10;;
44664;SDS011;30382;48.802;9.388;2023-06-10T05:01:58;7.93;;;7.23;;
44664;SDS011;30382;48.802;9.388;2023-06-10T05:04:43;11.83;;;8.10;;
44664;SDS011;30382;48.802;9.388;2023-06-10T05:07:27;8.30;;;7.60;;
44664;SDS011;30382;48.802;9.388;2023-06-10T05:10:11;8.60;;;7.83;;
44664;SDS011;30382;48.802;9.388;2023-06-10T05:12:59;9.20;;;8.30;;
44664;SDS011;30382;48.802;9.388;2023-06-10T05:15:43;14.90;;;9.57;;
44664;SDS011;30382;48.802;9.388;2023-06-10T05:18:28;27.33;;;11.00;;
44664;SDS011;30382;48.802;9.388;2023-06-10T05:21:12;12.80;;;9.23;;
44664;SDS011;30382;48.802;9.388;2023-06-10T05:23:57;26.03;;;10.77;;
44664;SDS011;30382;48.802;9.388;2023-06-10T05:26:41;24.57;;;9.70;;
44664;SDS011;30382;48.802;9.388;2023-06-10T05:29:26;14.50;;;8.90;;
44664;SDS011;30382;48.802;9.388;2023-06-10T05:32:10;12.10;;;9.33;;
44664;SDS011;30382;48.802;9.388;2023-06-10T05:34:55;9.07;;;8.27;;
44664;SDS011;30382;48.802;9.388;2023-06-10T05:37:39;18.40;;;9.50;;
44664;SDS011;30382;48.802;9.388;2023-06-10T05:40:23;9.60;;;8.60;;
44664;SDS011;30382;48.802;9.388;2023-06-10T05:43:08;9.27;;;8.47;;
44664;SDS011;30382;48.802;9.388;2023-06-10T05:45:53;11.03;;;8.43;;
44664;SDS011;30382;48.802;9.388;2023-06-10T05:48:37;8.70;;;8.00;;
44664;SDS011;30382;48.802;9.388;2023-06-10T05:51:22;7.83;;;7.23;;
44664;SDS011;30382;48.802;9.388;2023-06-10T05:54:06;8.33;;;7.63;;
44664;SDS011;30382;48.802;9.388;2023-06-10T05:56:50;7.50;;;6.90;;
44664;SDS011;30382;48.802;9.388;2023-06-10T05:59:35;15.43;;;7.63;;
44664;SDS011;30382;48.802;9.388;2023-06-10T06:02:19;8.03;;;7.17;;
44664;SDS011;30382;48.802;9.388;2023-06-10T06:05:04;7.73;;;7.03;;
44664;SDS011;30382;48.802;9.388;2023-06-10T06:07:48;6.50;;;5.90;;
44664;SDS011;30382;48.802;9.388;2023-06-10T06:10:33;8.73;;;6.70;;
44664;SDS011;30382;48.802;9.388;2023-06-10T06:13:17;7.17;;;6.40;;
44664;SDS011;30382;48.802;9.388;2023-06-10T06:16:02;7.30;;;6.70;;
44664;SDS011;30382;48.802;9.388;2023-06-10T06:18:46;6.80;;;6.20;;
44664;SDS011;30382;48.802;9.388;2023-06-10T06:21:31;7.53;;;6.57;;
44664;SDS011;30382;48.802;9.388;2023-06-10T06:24:16;6.80;;;6.20;;
44664;SDS011;30382;48.802;9.388;2023-06-10T06:27:00;6.83;;;6.33;;
44664;SDS011;30382;48.802;9.388;2023-06-10T06:29:44;6.30;;;5.80;;
44664;SDS011;30382;48.802;9.388;2023-06-10T06:32:29;6.13;;;5.63;;
44664;SDS011;30382;48.802;9.388;2023-06-10T06:35:13;9.13;;;6.50;;
44664;SDS011;30382;48.802;9.388;2023-06-10T06:37:57;6.47;;;5.93;;
44664;SDS011;30382;48.802;9.388;2023-06-10T06:40:45;6.57;;;6.00;;
44664;SDS011;30382;48.802;9.388;2023-06-10T06:43:30;6.47;;;5.90;;
44664;SDS011;30382;48.802;9.388;2023-06-10T06:46:33;6.80;;;6.30;;
44664;SDS011;30382;48.802;9.388;2023-06-10T06:49:17;7.20;;;5.83;;
44664;SDS011;30382;48.802;9.388;2023-06-10T06:52:02;7.23;;;6.07;;
44664;SDS011;30382;48.802;9.388;2023-06-10T06:54:46;5.00;;;4.60;;
44664;SDS011;30382;48.802;9.388;2023-06-10T06:57:31;6.20;;;5.60;;
44664;SDS011;30382;48.802;9.388;2023-06-10T07:00:16;5.63;;;5.23;;
44664;SDS011;30382;48.802;9.388;2023-06-10T07:03:00;9.83;;;6.30;;
44664;SDS011;30382;48.802;9.388;2023-06-10T07:05:44;5.70;;;5.30;;
44664;SDS011;30382;48.802;9.388;2023-06-10T07:08:29;6.00;;;5.40;;
44664;SDS011;30382;48.802;9.388;2023-06-10T07:11:14;6.03;;;5.53;;
44664;SDS011;30382;48.802;9.388;2023-06-10T07:13:58;6.77;;;6.27;;
44664;SDS011;30382;48.802;9.388;2023-06-10T07:16:42;7.33;;;5.23;;
44664;SDS011;30382;48.802;9.388;2023-06-10T07:19:29;5.40;;;5.03;;
44664;SDS011;30382;48.802;9.388;2023-06-10T07:22:13;5.60;;;5.10;;
44664;SDS011;30382;48.802;9.388;2023-06-10T07:24:58;5.00;;;4.70;;
44664;SDS011;30382;48.802;9.388;2023-06-10T07:27:42;5.73;;;5.00;;
44664;SDS011;30382;48.802;9.388;2023-06-10T07:30:27;5.13;;;4.73;;
44664;SDS011;30382;48.802;9.388;2023-06-10T07:33:12;11.20;;;6.03;;
44664;SDS011;30382;48.802;9.388;2023-06-10T07:35:56;6.00;;;5.43;;
44664;SDS011;30382;48.802;9.388;2023-06-10T07:38:41;5.27;;;4.87;;
44664;SDS011;30382;48.802;9.388;2023-06-10T07:41:26;5.40;;;5.00;;
44664;SDS011;30382;48.802;9.388;2023-06-10T07:44:10;7.30;;;5.30;;
44664;SDS011;30382;48.802;9.388;2023-06-10T07:46:54;6.47;;;5.93;;
44664;SDS011;30382;48.802;9.388;2023-06-10T07:49:39;5.80;;;5.30;;
44664;SDS011;30382;48.802;9.388;2023-06-10T07:52:24;5.50;;;5.10;;
44664;SDS011;30382;48.802;9.388;2023-06-10T07:55:08;5.40;;;5.03;;
44664;SDS011;30382;48.802;9.388;2023-06-10T07:57:53;5.73;;;5.37;;
44664;SDS011;30382;48.802;9.388;2023-06-10T08:00:37;5.50;;;5.00;;
44664;SDS011;30382;48.802;9.388;2023-06-10T08:03:22;5.10;;;4.80;;
44664;SDS011;30382;48.802;9.388;2023-06-10T08:06:06;6.43;;;5.87;;
44664;SDS011;30382;48.802;9.388;2023-06-10T08:08:50;6.37;;;5.80;;
44664;SDS011;30382;48.802;9.388;2023-06-10T08:11:35;6.03;;;5.60;;
44664;SDS011;30382;48.802;9.388;2023-06-10T08:14:19;6.13;;;5.60;;
44664;SDS011;30382;48.802;9.388;2023-06-10T08:17:03;5.80;;;5.30;;
44664;SDS011;30382;48.802;9.388;2023-06-10T08:19:49;5.43;;;5.03;;
44664;SDS011;30382;48.802;9.388;2023-06-10T08:22:34;6.67;;;6.07;;
44664;SDS011;30382;48.802;9.388;2023-06-10T08:25:18;7.63;;;5.33;;
44664;SDS011;30382;48.802;9.388;2023-06-10T08:28:02;10.17;;;6.50;;
44664;SDS011;30382;48.802;9.388;2023-06-10T08:30:47;6.27;;;5.87;;
44664;SDS011;30382;48.802;9.388;2023-06-10T08:33:31;5.80;;;5.30;;
44664;SDS011;30382;48.802;9.388;2023-06-10T08:36:15;8.07;;;7.37;;
44664;SDS011;30382;48.802;9.388;2023-06-10T08:38:59;5.47;;;5.00;;
44664;SDS011;30382;48.802;9.388;2023-06-10T08:41:44;6.03;;;5.47;;
44664;SDS011;30382;48.802;9.388;2023-06-10T08:44:31;6.27;;;5.77;;
44664;SDS011;30382;48.802;9.388;2023-06-10T08:47:17;6.17;;;5.67;;
44664;SDS011;30382;48.802;9.388;2023-06-10T08:50:02;5.90;;;5.47;;
44664;SDS011;30382;48.802;9.388;2023-06-10T08:52:48;6.23;;;5.77;;
44664;SDS011;30382;48.802;9.388;2023-06-10T08:55:43;6.37;;;5.53;;
44664;SDS011;30382;48.802;9.388;2023-06-10T09:01:14;6.80;;;6.30;;
44664;SDS011;30382;48.802;9.388;2023-06-10T09:04:01;6.37;;;5.87;;
44664;SDS011;30382;48.802;9.388;2023-06-10T09:06:45;6.00;;;5.60;;
44664;SDS011;30382;48.802;9.388;2023-06-10T09:09:31;6.40;;;5.90;;
44664;SDS011;30382;48.802;9.388;2023-06-10T09:12:16;6.10;;;5.60;;
44664;SDS011;30382;48.802;9.388;2023-06-10T09:15:01;5.77;;;5.37;;
44664;SDS011;30382;48.802;9.388;2023-06-10T09:17:45;6.13;;;5.73;;
44664;SDS011;30382;48.802;9.388;2023-06-10T09:20:30;6.03;;;5.53;;
44664;SDS011;30382;48.802;9.388;2023-06-10T09:23:15;6.10;;;5.70;;
44664;SDS011;30382;48.802;9.388;2023-06-10T09:26:00;6.90;;;6.40;;
44664;SDS011;30382;48.802;9.388;2023-06-10T09:28:44;6.00;;;5.60;;
44664;SDS011;30382;48.802;9.388;2023-06-10T09:31:33;6.93;;;6.37;;
44664;SDS011;30382;48.802;9.388;2023-06-10T09:34:18;5.60;;;5.30;;
44664;SDS011;30382;48.802;9.388;2023-06-10T09:37:03;6.47;;;5.97;;
44664;SDS011;30382;48.802;9.388;2023-06-10T09:40:03;6.73;;;6.20;;
44664;SDS011;30382;48.802;9.388;2023-06-10T09:42:58;6.80;;;6.30;;
44664;SDS011;30382;48.802;9.388;2023-06-10T09:45:43;6.73;;;5.40;;
44664;SDS011;30382;48.802;9.388;2023-06-10T09:48:27;6.87;;;6.37;;
44664;SDS011;30382;48.802;9.388;2023-06-10T09:51:12;6.60;;;6.00;;
44664;SDS011;30382;48.802;9.388;2023-06-10T09:53:57;5.40;;;5.10;;
44664;SDS011;30382;48.802;9.388;2023-06-10T09:56:42;10.50;;;6.30;;
44664;SDS011;30382;48.802;9.388;2023-06-10T09:59:30;6.77;;;6.27;;
44664;SDS011;30382;48.802;9.388;2023-06-10T10:02:16;6.27;;;5.77;;
44664;SDS011;30382;48.802;9.388;2023-06-10T10:05:04;5.80;;;5.30;;
44664;SDS011;30382;48.802;9.388;2023-06-10T10:07:48;5.90;;;5.50;;
44664;SDS011;30382;48.802;9.388;2023-06-10T10:10:33;5.83;;;5.33;;
44664;SDS011;30382;48.802;9.388;2023-06-10T10:13:17;5.50;;;5.10;;
44664;SDS011;30382;48.802;9.388;2023-06-10T10:16:04;5.53;;;5.03;;
44664;SDS011;30382;48.802;9.388;2023-06-10T10:18:57;4.90;;;4.50;;
44664;SDS011;30382;48.802;9.388;2023-06-10T10:21:43;6.00;;;5.50;;
44664;SDS011;30382;48.802;9.388;2023-06-10T10:27:52;6.80;;;6.20;;
44664;SDS011;30382;48.802;9.388;2023-06-10T10:30:52;5.87;;;5.37;;
44664;SDS011;30382;48.802;9.388;2023-06-10T10:33:40;5.60;;;5.03;;
44664;SDS011;30382;48.802;9.388;2023-06-10T10:36:26;4.80;;;4.50;;
44664;SDS011;30382;48.802;9.388;2023-06-10T10:39:11;5.27;;;4.97;;
44664;SDS011;30382;48.802;9.388;2023-06-10T10:41:56;5.40;;;4.90;;
44664;SDS011;30382;48.802;9.388;2023-06-10T10:44:40;5.70;;;5.30;;
44664;SDS011;30382;48.802;9.388;2023-06-10T10:50:12;6.07;;;5.30;;
44664;SDS011;30382;48.802;9.388;2023-06-10T10:53:01;5.90;;;5.47;;
44664;SDS011;30382;48.802;9.388;2023-06-10T10:55:57;5.60;;;5.20;;
44664;SDS011;30382;48.802;9.388;2023-06-10T10:58:41;6.17;;;5.77;;
44664;SDS011;30382;48.802;9.388;2023-06-10T11:01:26;5.50;;;5.10;;
44664;SDS011;30382;48.802;9.388;2023-06-10T11:04:23;4.97;;;4.77;;
44664;SDS011;30382;48.802;9.388;2023-06-10T11:07:10;5.67;;;5.17;;
44664;SDS011;30382;48.802;9.388;2023-06-10T11:10:10;4.97;;;4.67;;
44664;SDS011;30382;48.802;9.388;2023-06-10T11:12:55;5.10;;;4.80;;
44664;SDS011;30382;48.802;9.388;2023-06-10T11:15:44;5.23;;;4.80;;
44664;SDS011;30382;48.802;9.388;2023-06-10T11:18:29;5.07;;;4.77;;
44664;SDS011;30382;48.802;9.388;2023-06-10T11:21:13;4.90;;;4.60;;
44664;SDS011;30382;48.802;9.388;2023-06-10T11:24:09;4.80;;;4.50;;
44664;SDS011;30382;48.802;9.388;2023-06-10T11:26:55;4.57;;;4.27;;
44664;SDS011;30382;48.802;9.388;2023-06-10T11:32:50;6.63;;;6.10;;
44664;SDS011;30382;48.802;9.388;2023-06-10T11:35:35;6.40;;;5.60;;
44664;SDS011;30382;48.802;9.388;2023-06-10T11:38:19;5.47;;;5.00;;
44664;SDS011;30382;48.802;9.388;2023-06-10T11:41:04;5.47;;;5.07;;
44664;SDS011;30382;48.802;9.388;2023-06-10T11:43:48;5.73;;;5.30;;
44664;SDS011;30382;48.802;9.388;2023-06-10T11:46:33;4.77;;;4.47;;
44664;SDS011;30382;48.802;9.388;2023-06-10T11:49:17;5.47;;;5.17;;
44664;SDS011;30382;48.802;9.388;2023-06-10T11:52:03;5.33;;;4.93;;
44664;SDS011;30382;48.802;9.388;2023-06-10T11:54:53;5.50;;;5.10;;
44664;SDS011;30382;48.802;9.388;2023-06-10T11:57:37;5.50;;;5.20;;
44664;SDS011;30382;48.802;9.388;2023-06-10T12:00:22;6.13;;;5.70;;
44664;SDS011;30382;48.802;9.388;2023-06-10T12:03:06;5.53;;;5.23;;
44664;SDS011;30382;48.802;9.388;2023-06-10T12:08:42;5.57;;;5.17;;
44664;SDS011;30382;48.802;9.388;2023-06-10T12:11:27;5.73;;;5.40;;
44664;SDS011;30382;48.802;9.388;2023-06-10T12:14:11;6.30;;;5.90;;
44664;SDS011;30382;48.802;9.388;2023-06-10T12:16:56;6.27;;;5.80;;
44664;SDS011;30382;48.802;9.388;2023-06-10T12:19:40;6.00;;;5.50;;
44664;SDS011;30382;48.802;9.388;2023-06-10T12:22:24;5.90;;;5.50;;
44664;SDS011;30382;48.802;9.388;2023-06-10T12:25:09;5.70;;;5.40;;
44664;SDS011;30382;48.802;9.388;2023-06-10T12:27:55;5.40;;;4.90;;
44664;SDS011;30382;48.802;9.388;2023-06-10T12:30:40;5.70;;;5.30;;
44664;SDS011;30382;48.802;9.388;2023-06-10T12:33:24;5.97;;;5.53;;
44664;SDS011;30382;48.802;9.388;2023-06-10T12:36:09;5.00;;;4.70;;
44664;SDS011;30382;48.802;9.388;2023-06-10T12:39:05;5.22;;;4.93;;
44664;SDS011;30382;48.802;9.388;2023-06-10T12:41:50;4.97;;;4.68;;
44664;SDS011;30382;48.802;9.388;2023-06-10T12:44:35;5.15;;;4.85;;
44664;SDS011;30382;48.802;9.388;2023-06-10T12:47:29;5.13;;;4.72;;
44664;SDS011;30382;48.802;9.388;2023-06-10T12:50:14;7.18;;;4.80;;
44664;SDS011;30382;48.802;9.388;2023-06-10T12:52:59;4.55;;;4.25;;
44664;SDS011;30382;48.802;9.388;2023-06-10T12:55:43;6.03;;;5.28;;
44664;SDS011;30382;48.802;9.388;2023-06-10T12:58:29;5.18;;;4.80;;
44664;SDS011;30382;48.802;9.388;2023-06-10T13:01:13;4.65;;;4.40;;
44664;SDS011;30382;48.802;9.388;2023-06-10T13:03:58;4.50;;;4.20;;
44664;SDS011;30382;48.802;9.388;2023-06-10T13:06:42;5.10;;;4.80;;
44664;SDS011;30382;48.802;9.388;2023-06-10T13:09:27;4.07;;;3.88;;
44664;SDS011;30382;48.802;9.388;2023-06-10T13:12:11;4.90;;;4.63;;
44664;SDS011;30382;48.802;9.388;2023-06-10T13:14:56;4.63;;;4.32;;
44664;SDS011;30382;48.802;9.388;2023-06-10T13:17:40;5.97;;;5.45;;
44664;SDS011;30382;48.802;9.388;2023-06-10T13:20:24;5.10;;;4.80;;
44664;SDS011;30382;48.802;9.388;2023-06-10T13:23:10;4.43;;;4.22;;
44664;SDS011;30382;48.802;9.388;2023-06-10T13:25:54;5.22;;;4.85;;
44664;SDS011;30382;48.802;9.388;2023-06-10T13:28:39;4.90;;;4.50;;
44664;SDS011;30382;48.802;9.388;2023-06-10T13:31:24;4.60;;;4.30;;
44664;SDS011;30382;48.802;9.388;2023-06-10T13:34:08;4.78;;;4.57;;
44664;SDS011;30382;48.802;9.388;2023-06-10T13:36:52;4.57;;;4.28;;
44664;SDS011;30382;48.802;9.388;2023-06-10T13:39:37;4.25;;;4.05;;
44664;SDS011;30382;48.802;9.388;2023-06-10T13:42:21;4.53;;;4.22;;
44664;SDS011;30382;48.802;9.388;2023-06-10T13:45:06;4.40;;;4.10;;
44664;SDS011;30382;48.802;9.388;2023-06-10T13:47:51;4.85;;;4.55;;
44664;SDS011;30382;48.802;9.388;2023-06-10T13:50:35;5.32;;;4.93;;
44664;SDS011;30382;48.802;9.388;2023-06-10T13:53:20;5.00;;;4.70;;
44664;SDS011;30382;48.802;9.388;2023-06-10T13:56:04;4.90;;;4.60;;
44664;SDS011;30382;48.802;9.388;2023-06-10T13:58:49;5.07;;;4.77;;
44664;SDS011;30382;48.802;9.388;2023-06-10T14:01:33;4.80;;;4.50;;
44664;SDS011;30382;48.802;9.388;2023-06-10T14:04:19;5.60;;;5.30;;
44664;SDS011;30382;48.802;9.388;2023-06-10T14:07:03;5.50;;;5.00;;
44664;SDS011;30382;48.802;9.388;2023-06-10T14:09:47;5.33;;;4.57;;
44664;SDS011;30382;48.802;9.388;2023-06-10T14:12:31;4.90;;;4.50;;
44664;SDS011;30382;48.802;9.388;2023-06-10T14:15:16;6.03;;;5.60;;
44664;SDS011;30382;48.802;9.388;2023-06-10T14:18:00;5.90;;;5.60;;
44664;SDS011;30382;48.802;9.388;2023-06-10T14:20:45;6.03;;;5.53;;
44664;SDS011;30382;48.802;9.388;2023-06-10T14:23:29;6.10;;;5.60;;
44664;SDS011;30382;48.802;9.388;2023-06-10T14:26:14;6.50;;;6.00;;
44664;SDS011;30382;48.802;9.388;2023-06-10T14:28:58;5.80;;;5.40;;
44664;SDS011;30382;48.802;9.388;2023-06-10T14:31:42;6.10;;;5.70;;
44664;SDS011;30382;48.802;9.388;2023-06-10T14:34:27;5.70;;;5.30;;
44664;SDS011;30382;48.802;9.388;2023-06-10T14:37:17;6.23;;;5.63;;
44664;SDS011;30382;48.802;9.388;2023-06-10T14:40:03;6.70;;;6.20;;
44664;SDS011;30382;48.802;9.388;2023-06-10T14:42:48;5.87;;;5.47;;
44664;SDS011;30382;48.802;9.388;2023-06-10T14:45:32;6.70;;;6.10;;
44664;SDS011;30382;48.802;9.388;2023-06-10T14:48:16;5.90;;;5.40;;
44664;SDS011;30382;48.802;9.388;2023-06-10T14:51:01;6.40;;;5.93;;
44664;SDS011;30382;48.802;9.388;2023-06-10T14:53:45;5.75;;;5.43;;
44664;SDS011;30382;48.802;9.388;2023-06-10T14:56:30;5.95;;;5.65;;
44664;SDS011;30382;48.802;9.388;2023-06-10T14:59:14;5.93;;;5.57;;
44664;SDS011;30382;48.802;9.388;2023-06-10T15:01:59;6.40;;;5.93;;
44664;SDS011;30382;48.802;9.388;2023-06-10T15:04:44;6.03;;;5.40;;
44664;SDS011;30382;48.802;9.388;2023-06-10T15:07:29;5.17;;;4.83;;
44664;SDS011;30382;48.802;9.388;2023-06-10T15:10:14;8.90;;;8.30;;
44664;SDS011;30382;48.802;9.388;2023-06-10T15:13:02;4.83;;;4.53;;
44664;SDS011;30382;48.802;9.388;2023-06-10T15:15:47;5.93;;;5.43;;
44664;SDS011;30382;48.802;9.388;2023-06-10T15:18:31;5.13;;;4.83;;
44664;SDS011;30382;48.802;9.388;2023-06-10T15:21:16;5.17;;;4.87;;
44664;SDS011;30382;48.802;9.388;2023-06-10T15:24:00;5.23;;;4.90;;
44664;SDS011;30382;48.802;9.388;2023-06-10T15:26:45;4.30;;;4.00;;
44664;SDS011;30382;48.802;9.388;2023-06-10T15:29:29;4.57;;;4.27;;
44664;SDS011;30382;48.802;9.388;2023-06-10T15:32:14;6.03;;;4.13;;
44664;SDS011;30382;48.802;9.388;2023-06-10T15:34:58;5.50;;;5.00;;
44664;SDS011;30382;48.802;9.388;2023-06-10T15:37:43;4.40;;;4.10;;
44664;SDS011;30382;48.802;9.388;2023-06-10T15:40:27;4.30;;;4.00;;
44664;SDS011;30382;48.802;9.388;2023-06-10T15:43:12;5.05;;;4.75;;
44664;SDS011;30382;48.802;9.388;2023-06-10T15:45:57;4.90;;;4.60;;
44664;SDS011;30382;48.802;9.388;2023-06-10T15:48:42;4.28;;;4.07;;
44664;SDS011;30382;48.802;9.388;2023-06-10T15:51:26;5.20;;;4.53;;
44664;SDS011;30382;48.802;9.388;2023-06-10T15:54:10;4.22;;;4.03;;
44664;SDS011;30382;48.802;9.388;2023-06-10T15:56:55;4.00;;;3.80;;
44664;SDS011;30382;48.802;9.388;2023-06-10T15:59:39;3.90;;;3.70;;
44664;SDS011;30382;48.802;9.388;2023-06-10T16:02:23;4.07;;;3.80;;
44664;SDS011;30382;48.802;9.388;2023-06-10T16:05:08;4.10;;;3.80;;
44664;SDS011;30382;48.802;9.388;2023-06-10T16:07:52;4.55;;;4.25;;
44664;SDS011;30382;48.802;9.388;2023-06-10T16:10:36;4.05;;;3.83;;
44664;SDS011;30382;48.802;9.388;2023-06-10T16:13:21;4.40;;;4.10;;
44664;SDS011;30382;48.802;9.388;2023-06-10T16:16:05;5.87;;;5.57;;
44664;SDS011;30382;48.802;9.388;2023-06-10T16:18:49;4.25;;;4.03;;
44664;SDS011;30382;48.802;9.388;2023-06-10T16:21:34;4.55;;;4.35;;
44664;SDS011;30382;48.802;9.388;2023-06-10T16:24:20;4.28;;;4.07;;
44664;SDS011;30382;48.802;9.388;2023-06-10T16:27:05;4.93;;;4.73;;
44664;SDS011;30382;48.802;9.388;2023-06-10T16:29:51;4.72;;;4.38;;
44664;SDS011;30382;48.802;9.388;2023-06-10T16:32:36;4.50;;;4.10;;
44664;SDS011;30382;48.802;9.388;2023-06-10T16:35:20;4.18;;;3.90;;
44664;SDS011;30382;48.802;9.388;2023-06-10T16:40:48;4.28;;;3.97;;
44664;SDS011;30382;48.802;9.388;2023-06-10T16:43:33;4.80;;;4.45;;
44664;SDS011;30382;48.802;9.388;2023-06-10T16:46:17;4.97;;;4.67;;
44664;SDS011;30382;48.802;9.388;2023-06-10T16:49:02;4.57;;;4.27;;
44664;SDS011;30382;48.802;9.388;2023-06-10T16:51:47;6.77;;;6.10;;
44664;SDS011;30382;48.802;9.388;2023-06-10T16:54:31;5.50;;;4.93;;
44664;SDS011;30382;48.802;9.388;2023-06-10T17:02:44;5.03;;;4.73;;
44664;SDS011;30382;48.802;9.388;2023-06-10T17:05:28;4.77;;;4.47;;